Sonora Municipal Airport
KSOA : now visible

Airfield :











YOU CAN JOIN US ON...

 
LOGIN :

Register | Disclaimer

   EN    FR    IT 

 









Legend :    VFR   Marginal VFR   IFR   Intensive IFR   Very Intensive IFR
Visi :
Ceiling :
>= 8 km
>= 3000ft
5 to 8 km
1000 to 3000 ft
1500m to 5 km
500 to 1000 ft
800 to 1500m
200 to 500 ft
< 800m
< 200 ft
Symbols :   Thunderstorms  Fog  Heavy snow  Heavy precipitations  Wind > 20 kt






- Airport Elevation : 2140 ft


KSOA - Sonora Municipal

CURRENT METAR :
  • 211615Z AUTO 19011KT 7SM SCT022 SCT048 28/22 A2991 RMK AO2

EXPIRED METARs :
  • 211555Z AUTO 19009KT 6SM HZ SCT019 27/21 A2991 RMK AO2
  • 211535Z AUTO 20008KT 6SM HZ SCT019 27/21 A2991 RMK AO2
  • 211515Z AUTO 20010G15KT 6SM HZ SCT017 26/21 A2990 RMK AO2
  • 211455Z AUTO 19010KT 6SM HZ BKN017 26/21 A2990 RMK AO2
  • 211435Z AUTO 18010KT 7SM FEW019 26/21 A2990 RMK AO2
  • 211415Z AUTO 17011KT 7SM BKN019 25/21 A2990 RMK AO2
  • 211355Z AUTO 18008KT 7SM BKN019 25/20 A2990 RMK AO2
  • 211335Z AUTO 19010G16KT 7SM BKN018 25/20 A2990 RMK AO2
  • 211315Z AUTO 18013KT 7SM BKN018 25/21 A2988 RMK AO2
  • 211255Z AUTO 18013G19KT 6SM HZ BKN018 25/21 A2986 RMK AO2
  • 211235Z AUTO 18013G20KT 6SM HZ BKN016 25/21 A2987 RMK AO2
  • 211215Z AUTO 17012G19KT 6SM HZ BKN014 BKN019 25/21 A2986 RMK AO2
  • 211155Z AUTO 18014G19KT 7SM BKN014 25/21 A2987 RMK AO2
  • 211135Z AUTO 17012G17KT 7SM OVC014 25/21 A2986 RMK AO2

TAF KSOA
Valid from the 21 at 12:00 until the 22 at 12:00 UTC


211120Z 2112/2212 17011G20KT P6SM OVC015
FM211600 20008KT P6SM BKN250
FM211800 24005KT P6SM BKN250
FM220000 15005KT P6SM BKN250
KZHU FIR / North America



MET'MAP, your aeronautical weather chart ! - Copyright ORBIFLY December 2007 - Disclaimer

ORBIFLY MET'MAP TEAM :

Programming & Development : Alexandra Zaïnal
Original concept : Baudouin d'Aumeries
Technical & hardware support : Manuel Goepfert
Assistance : Marc-Olivier Méhu




SOURCES & CREDITS :

   NOAA       Earth
Advisory